Time;durP1;ratioP1;P1;durP2;ratioP2;P2;SDS_P1;SDS_P2;PMS_P1;PMS_P2;Temp;Humidity;BMP_temperature;BMP_pressure;BME280_temperature;BME280_humidity;BME280_pressure;Samples;Min_cycle;Max_cycle;Signal;HPM_P1;HPM_P2
2021/10/29 00:01:19;;;;;;;37.13;33.85;;;7.20;96.10;;;;;;5128642;27;20324;-68
2021/10/29 00:03:46;;;;;;;37.20;33.85;;;7.30;95.70;;;;;;5128095;27;20691;-68
2021/10/29 00:06:13;;;;;;;36.40;33.03;;;7.20;95.70;;;;;;5123155;27;20326;-67
2021/10/29 00:08:41;;;;;;;37.83;34.72;;;7.20;95.60;;;;;;5128049;27;20196;-67
2021/10/29 00:11:09;;;;;;;36.13;33.00;;;7.20;96.10;;;;;;5128969;27;20640;-68
2021/10/29 00:13:36;;;;;;;37.85;34.75;;;7.20;95.80;;;;;;5130382;27;20209;-67
2021/10/29 00:16:03;;;;;;;36.92;33.50;;;7.20;95.70;;;;;;5127355;27;20290;-67
2021/10/29 00:18:30;;;;;;;36.15;32.92;;;7.20;95.20;;;;;;5129383;27;20697;-66
2021/10/29 00:20:57;;;;;;;36.97;33.97;;;7.10;95.60;;;;;;5128131;27;20526;-68
2021/10/29 00:23:25;;;;;;;38.55;35.15;;;7.10;95.60;;;;;;5130868;27;20202;-68
2021/10/29 00:25:53;;;;;;;37.88;34.47;;;7.00;96.50;;;;;;5125394;27;20222;-67
2021/10/29 00:28:20;;;;;;;37.35;34.15;;;7.00;97.10;;;;;;5121623;27;20667;-68
2021/10/29 00:30:47;;;;;;;36.65;33.45;;;6.90;96.70;;;;;;5127585;27;20277;-67
2021/10/29 00:33:15;;;;;;;40.15;36.53;;;6.90;96.60;;;;;;5129433;27;20582;-67
2021/10/29 00:35:42;;;;;;;38.53;35.03;;;6.90;96.70;;;;;;5125494;27;20217;-67
2021/10/29 00:38:10;;;;;;;38.35;34.90;;;6.90;96.70;;;;;;5128484;27;20202;-67
2021/10/29 00:40:39;;;;;;;37.85;34.20;;;6.90;96.70;;;;;;5128909;27;20214;-67
2021/10/29 00:43:08;;;;;;;37.35;33.95;;;7.00;96.30;;;;;;5130783;27;20301;-67
2021/10/29 00:45:35;;;;;;;35.63;32.63;;;6.90;96.00;;;;;;5123256;27;20587;-68
2021/10/29 00:48:02;;;;;;;37.58;34.28;;;6.90;96.50;;;;;;5125841;27;20651;-67
2021/10/29 00:50:29;;;;;;;37.60;34.08;;;6.90;96.70;;;;;;5128085;27;20190;-67
2021/10/29 00:52:57;;;;;;;38.42;34.78;;;6.80;96.50;;;;;;5125948;27;20221;-67
2021/10/29 00:55:24;;;;;;;37.00;33.85;;;6.80;96.50;;;;;;5127298;27;20555;-67
2021/10/29 00:57:52;;;;;;;37.15;33.95;;;6.80;96.50;;;;;;5131770;27;20237;-67
2021/10/29 01:00:22;;;;;;;37.22;34.20;;;6.80;97.50;;;;;;5127309;27;20197;-67
2021/10/29 01:02:49;;;;;;;36.90;33.80;;;6.80;96.90;;;;;;5131869;27;20222;-69
2021/10/29 01:05:16;;;;;;;36.47;33.50;;;6.80;96.70;;;;;;5126290;27;20194;-68
2021/10/29 01:07:43;;;;;;;37.90;34.58;;;6.80;96.90;;;;;;5128057;27;20277;-67
2021/10/29 01:10:11;;;;;;;37.30;34.00;;;6.80;96.70;;;;;;5127457;27;20281;-68
2021/10/29 01:12:38;;;;;;;37.22;34.22;;;6.70;96.50;;;;;;5131011;27;20220;-67
2021/10/29 01:15:08;;;;;;;35.67;32.72;;;6.80;96.40;;;;;;5126968;27;20221;-68
2021/10/29 01:17:37;;;;;;;38.88;35.58;;;6.70;96.30;;;;;;5127096;27;20247;-70
2021/10/29 01:20:06;;;;;;;37.38;34.13;;;6.70;96.30;;;;;;5125872;27;20190;-70
2021/10/29 01:22:34;;;;;;;36.85;33.75;;;6.70;96.20;;;;;;5131694;27;20228;-73
2021/10/29 01:25:01;;;;;;;37.05;33.60;;;6.70;96.20;;;;;;5121612;27;20202;-74
2021/10/29 01:27:28;;;;;;;38.65;35.30;;;6.70;95.80;;;;;;5124725;27;20200;-69
2021/10/29 01:29:55;;;;;;;37.80;34.70;;;6.70;95.90;;;;;;5124990;27;20927;-71
2021/10/29 01:32:23;;;;;;;666.15;106.78;;;6.60;96.20;;;;;;5127261;27;20240;-70
2021/10/29 01:34:50;;;;;;;38.05;34.55;;;6.60;97.50;;;;;;5115632;27;20705;-69
2021/10/29 01:37:17;;;;;;;39.95;36.42;;;6.50;97.70;;;;;;5126536;27;20198;-72
2021/10/29 01:39:45;;;;;;;37.92;34.58;;;6.60;97.50;;;;;;5128062;28;20273;-70
2021/10/29 01:42:13;;;;;;;40.78;36.83;;;6.60;97.10;;;;;;5123682;27;20240;-70
2021/10/29 01:44:42;;;;;;;39.03;35.35;;;6.60;97.30;;;;;;5124559;28;20196;-72
2021/10/29 01:47:09;;;;;;;41.47;37.83;;;6.70;97.10;;;;;;5125978;27;20417;-69
2021/10/29 01:49:39;;;;;;;39.17;35.38;;;6.60;97.50;;;;;;5125991;27;20558;-70
2021/10/29 01:52:06;;;;;;;39.22;35.63;;;6.70;97.80;;;;;;5126387;27;20262;-70
2021/10/29 01:54:33;;;;;;;37.00;34.00;;;6.60;97.00;;;;;;5126734;27;20196;-67
2021/10/29 01:57:02;;;;;;;40.05;36.63;;;6.60;97.00;;;;;;5120945;27;20226;-67
2021/10/29 01:59:29;;;;;;;37.10;33.67;;;6.60;96.80;;;;;;5125244;27;20930;-67
2021/10/29 02:01:56;;;;;;;38.17;34.85;;;6.50;96.70;;;;;;5125638;27;20217;-68
2021/10/29 02:04:23;;;;;;;37.80;34.47;;;6.50;96.80;;;;;;5127236;28;20196;-67
2021/10/29 02:06:50;;;;;;;37.80;34.40;;;6.50;96.90;;;;;;5126401;27;20693;-67
2021/10/29 02:09:17;;;;;;;36.97;33.75;;;6.50;96.70;;;;;;5126016;27;20236;-67
2021/10/29 02:11:44;;;;;;;37.97;34.97;;;6.50;96.50;;;;;;5122490;27;20567;-67
2021/10/29 02:14:13;;;;;;;38.30;34.83;;;6.50;96.40;;;;;;5131524;27;20197;-67
2021/10/29 02:16:40;;;;;;;38.88;34.72;;;6.60;95.70;;;;;;5124224;27;20279;-67
2021/10/29 02:19:07;;;;;;;39.05;35.60;;;6.60;95.30;;;;;;5125078;27;20198;-67
2021/10/29 02:21:34;;;;;;;39.03;35.75;;;6.50;95.30;;;;;;5127987;27;20230;-67
2021/10/29 02:24:01;;;;;;;38.85;35.30;;;6.50;95.00;;;;;;5131115;27;20186;-66
2021/10/29 02:26:29;;;;;;;39.03;35.45;;;6.50;94.80;;;;;;5126995;27;21512;-67
2021/10/29 02:28:56;;;;;;;39.13;35.42;;;6.30;95.30;;;;;;5128468;27;20198;-67
2021/10/29 02:31:26;;;;;;;38.78;35.42;;;6.30;95.60;;;;;;5125133;27;20205;-67
2021/10/29 02:33:53;;;;;;;357.08;73.47;;;6.30;95.70;;;;;;5129499;27;20667;-67
2021/10/29 02:36:20;;;;;;;285.30;58.40;;;6.20;96.90;;;;;;5129846;27;20186;-67
2021/10/29 02:38:47;;;;;;;38.78;35.17;;;6.20;97.10;;;;;;5131427;27;20280;-67
2021/10/29 02:41:15;;;;;;;36.25;33.33;;;6.20;97.00;;;;;;5128204;27;21114;-67
2021/10/29 02:43:43;;;;;;;38.92;35.47;;;6.10;96.80;;;;;;5124449;27;20320;-68
2021/10/29 02:46:10;;;;;;;37.45;34.17;;;6.10;96.80;;;;;;5127859;27;20286;-67
2021/10/29 02:48:38;;;;;;;44.28;36.95;;;6.20;96.80;;;;;;5136848;27;20197;-70
2021/10/29 02:51:05;;;;;;;39.13;35.92;;;6.20;96.50;;;;;;5123312;27;20216;-71
2021/10/29 02:53:35;;;;;;;37.83;34.42;;;6.20;97.00;;;;;;5129199;27;20285;-71
2021/10/29 02:56:02;;;;;;;36.20;33.30;;;6.20;96.60;;;;;;5129610;27;20198;-69
2021/10/29 02:58:31;;;;;;;36.80;33.60;;;6.20;96.10;;;;;;5130963;27;20201;-71
2021/10/29 03:00:58;;;;;;;38.58;35.35;;;6.20;95.90;;;;;;5128892;27;20212;-71
2021/10/29 03:03:25;;;;;;;37.50;34.30;;;6.10;95.50;;;;;;5126930;27;20198;-69
2021/10/29 03:05:53;;;;;;;36.90;33.60;;;6.10;95.40;;;;;;5128471;27;21050;-70
2021/10/29 03:08:20;;;;;;;37.47;34.05;;;6.00;94.90;;;;;;5120021;27;20200;-69
2021/10/29 03:10:47;;;;;;;37.15;34.05;;;5.90;95.30;;;;;;5128798;27;20655;-70
2021/10/29 03:13:15;;;;;;;36.17;33.08;;;5.80;95.20;;;;;;5126008;27;20687;-70
2021/10/29 03:15:42;;;;;;;38.75;35.42;;;5.80;95.60;;;;;;5128785;27;20220;-73
2021/10/29 03:18:09;;;;;;;38.30;34.88;;;5.70;95.70;;;;;;5131441;27;20715;-70
2021/10/29 03:20:35;;;;;;;37.45;34.30;;;5.70;95.90;;;;;;5129991;27;20537;-71
2021/10/29 03:23:04;;;;;;;36.95;33.78;;;5.70;96.00;;;;;;5126044;27;20226;-71
2021/10/29 03:25:32;;;;;;;37.88;34.45;;;5.70;95.90;;;;;;5128584;27;20198;-70
2021/10/29 03:27:59;;;;;;;150.30;40.17;;;5.70;95.80;;;;;;5127883;27;20547;-70
2021/10/29 03:30:27;;;;;;;38.92;35.42;;;5.70;95.90;;;;;;5128576;27;20198;-68
2021/10/29 03:32:55;;;;;;;38.00;34.83;;;5.70;96.20;;;;;;5127646;27;20289;-70
2021/10/29 03:35:22;;;;;;;35.03;31.90;;;5.70;96.10;;;;;;5128270;27;20198;-70
2021/10/29 03:40:54;;;;;;;39.58;36.17;;;5.60;96.00;;;;;;5045473;28;20204;-71
2021/10/29 03:43:25;;;;;;;38.78;35.30;;;5.70;95.90;;;;;;5107884;27;20686;-71
2021/10/29 03:45:54;;;;;;;39.08;35.92;;;5.80;95.50;;;;;;5120823;27;20224;-69
2021/10/29 03:48:28;;;;;;;38.88;35.55;;;5.80;95.00;;;;;;5126539;27;20285;-67
2021/10/29 03:51:05;;;;;;;38.15;34.85;;;5.70;95.00;;;;;;5125175;27;20246;-67
2021/10/29 03:53:38;;;;;;;37.60;34.55;;;5.70;95.30;;;;;;5128873;27;20242;-67
2021/10/29 03:56:11;;;;;;;39.55;36.25;;;5.60;95.20;;;;;;5128040;27;21846;-67
2021/10/29 03:58:39;;;;;;;37.45;34.20;;;5.70;95.00;;;;;;5127546;27;20224;-67
2021/10/29 04:01:06;;;;;;;345.30;74.10;;;5.70;95.00;;;;;;5130247;27;20279;-67
2021/10/29 04:03:33;;;;;;;39.70;36.53;;;5.60;95.40;;;;;;5127965;27;20205;-67
2021/10/29 04:05:59;;;;;;;38.08;34.97;;;5.60;95.80;;;;;;5128998;27;20287;-67
2021/10/29 04:08:26;;;;;;;39.38;36.00;;;5.60;95.80;;;;;;5129039;27;20194;-67
2021/10/29 04:10:55;;;;;;;37.50;34.30;;;5.50;95.90;;;;;;5125609;27;20548;-67
2021/10/29 04:13:26;;;;;;;68.65;39.15;;;5.50;95.90;;;;;;5129584;27;20222;-67
2021/10/29 04:15:54;;;;;;;91.80;43.47;;;5.50;96.10;;;;;;5125281;27;20208;-67
2021/10/29 04:18:24;;;;;;;41.88;38.08;;;5.50;96.70;;;;;;5130016;27;20402;-67
2021/10/29 04:20:51;;;;;;;40.45;37.03;;;5.60;97.00;;;;;;5128495;27;20479;-67
2021/10/29 04:23:18;;;;;;;44.47;40.38;;;5.60;97.00;;;;;;5127312;27;20687;-67
2021/10/29 04:25:45;;;;;;;42.00;38.28;;;5.60;96.70;;;;;;5123045;27;20658;-67
2021/10/29 04:28:12;;;;;;;38.25;34.85;;;5.60;96.70;;;;;;5127848;27;20683;-67
2021/10/29 04:30:43;;;;;;;43.92;39.97;;;5.60;96.70;;;;;;5123511;27;20570;-70
2021/10/29 04:33:13;;;;;;;40.47;36.47;;;5.70;97.20;;;;;;5123584;27;20218;-70
2021/10/29 04:35:44;;;;;;;42.85;38.95;;;5.70;96.70;;;;;;5126494;27;20200;-71
2021/10/29 04:38:12;;;;;;;43.15;39.35;;;5.70;96.70;;;;;;5124611;27;20462;-69
2021/10/29 04:40:41;;;;;;;42.00;38.17;;;5.80;96.80;;;;;;5129471;27;20293;-70
2021/10/29 04:43:10;;;;;;;39.90;36.53;;;5.80;96.10;;;;;;5128421;27;20222;-70
2021/10/29 04:45:37;;;;;;;42.13;38.65;;;5.70;96.00;;;;;;5121340;27;20194;-70
2021/10/29 04:48:06;;;;;;;39.47;35.92;;;5.70;96.00;;;;;;5139682;27;20758;-70
2021/10/29 04:50:34;;;;;;;43.42;39.50;;;5.70;96.00;;;;;;5129207;27;20208;-67
2021/10/29 04:53:01;;;;;;;40.70;37.30;;;5.70;96.30;;;;;;5126314;27;20214;-67
2021/10/29 04:55:28;;;;;;;40.25;36.63;;;5.70;96.60;;;;;;5128219;27;20796;-67
2021/10/29 04:57:56;;;;;;;44.50;39.95;;;5.70;96.20;;;;;;5139185;27;20194;-67
2021/10/29 05:00:24;;;;;;;40.78;37.17;;;5.70;96.20;;;;;;5128071;27;20240;-67
2021/10/29 05:02:52;;;;;;;42.83;38.85;;;5.60;96.70;;;;;;5129282;27;20308;-70
2021/10/29 05:05:20;;;;;;;43.17;39.55;;;5.60;96.80;;;;;;5127844;27;20204;-70
2021/10/29 05:07:47;;;;;;;39.03;35.75;;;5.60;96.70;;;;;;5139552;27;20285;-70
2021/10/29 05:10:14;;;;;;;39.55;35.85;;;5.60;96.80;;;;;;5125493;27;20202;-70
2021/10/29 05:12:42;;;;;;;41.53;37.75;;;5.60;96.70;;;;;;5127353;27;20790;-73
2021/10/29 05:15:11;;;;;;;38.97;35.50;;;5.60;96.70;;;;;;5122769;27;20195;-74
2021/10/29 05:17:38;;;;;;;42.67;38.88;;;5.60;96.50;;;;;;5132671;27;20198;-71
2021/10/29 05:20:06;;;;;;;42.78;38.90;;;5.70;96.10;;;;;;5137507;27;20453;-70
2021/10/29 05:22:34;;;;;;;38.60;35.45;;;5.80;95.80;;;;;;5131984;27;21043;-72
2021/10/29 05:25:01;;;;;;;39.45;35.88;;;5.80;95.20;;;;;;5120713;27;20209;-70
2021/10/29 05:27:28;;;;;;;42.17;38.58;;;5.80;94.80;;;;;;5134061;27;20280;-70
2021/10/29 05:29:55;;;;;;;40.25;36.85;;;5.70;95.00;;;;;;5128054;27;20537;-70
2021/10/29 05:32:22;;;;;;;41.78;38.13;;;5.60;95.40;;;;;;5128996;27;20281;-71
2021/10/29 05:34:49;;;;;;;38.65;35.30;;;5.50;95.50;;;;;;5117298;27;20198;-70
2021/10/29 05:37:16;;;;;;;50.38;39.30;;;5.50;95.60;;;;;;5116675;27;20204;-68
2021/10/29 05:39:45;;;;;;;42.88;38.88;;;5.50;95.70;;;;;;5128615;27;20227;-68
2021/10/29 05:42:11;;;;;;;40.40;36.85;;;5.50;96.10;;;;;;5120388;27;20745;-68
2021/10/29 05:44:38;;;;;;;40.35;36.72;;;5.40;96.10;;;;;;5117619;27;20203;-68
2021/10/29 05:47:05;;;;;;;42.65;39.00;;;5.40;96.40;;;;;;5129457;27;20200;-69
2021/10/29 05:49:32;;;;;;;42.15;38.25;;;5.40;96.60;;;;;;5132532;27;20543;-68
2021/10/29 05:51:59;;;;;;;39.45;36.00;;;5.50;96.70;;;;;;5124946;27;20217;-69
2021/10/29 05:55:00;;;;;;;41.28;37.40;;;5.50;97.10;;;;;;5130162;27;20197;-70
2021/10/29 05:57:28;;;;;;;42.20;38.28;;;5.60;96.50;;;;;;5136647;27;20197;-69
2021/10/29 05:59:55;;;;;;;40.55;36.67;;;5.60;96.60;;;;;;5132227;27;20733;-70
2021/10/29 06:02:22;;;;;;;43.92;39.88;;;5.70;97.20;;;;;;5133624;27;20691;-69
2021/10/29 06:04:49;;;;;;;43.10;39.20;;;5.70;96.80;;;;;;5131672;27;20633;-68
2021/10/29 06:07:16;;;;;;;39.72;36.22;;;5.70;97.10;;;;;;5138206;27;20544;-70
2021/10/29 06:09:43;;;;;;;41.35;37.60;;;5.80;97.00;;;;;;5131522;27;20209;-69
2021/10/29 06:12:11;;;;;;;39.95;36.35;;;5.90;96.80;;;;;;5129656;27;20227;-68
2021/10/29 06:14:39;;;;;;;60.78;43.42;;;5.90;96.70;;;;;;5129786;27;20840;-68
2021/10/29 06:17:07;;;;;;;43.17;39.13;;;6.10;97.10;;;;;;5137167;27;20285;-68
2021/10/29 06:19:34;;;;;;;40.75;37.10;;;6.10;96.60;;;;;;5131663;27;20578;-68
2021/10/29 06:22:09;;;;;;;41.03;37.22;;;6.10;96.50;;;;;;5125462;27;20215;-69
2021/10/29 06:24:36;;;;;;;39.85;36.25;;;6.10;96.20;;;;;;5125616;27;20200;-70
2021/10/29 06:27:09;;;;;;;40.85;37.35;;;6.20;96.00;;;;;;5140161;27;20189;-70
2021/10/29 06:29:36;;;;;;;40.22;36.58;;;6.20;96.10;;;;;;5128456;27;20194;-71
2021/10/29 06:32:07;;;;;;;42.45;38.45;;;6.30;95.80;;;;;;5136942;27;20206;-71
2021/10/29 06:34:35;;;;;;;39.40;35.80;;;6.30;95.70;;;;;;5130010;27;20193;-71
2021/10/29 06:37:02;;;;;;;39.80;36.35;;;6.30;96.40;;;;;;5137411;27;20292;-71
2021/10/29 06:39:29;;;;;;;41.15;37.30;;;6.40;96.20;;;;;;5129246;27;20285;-72
2021/10/29 06:41:57;;;;;;;35.75;32.65;;;6.40;95.80;;;;;;5133347;27;20312;-71
2021/10/29 06:44:31;;;;;;;37.60;34.33;;;6.50;95.40;;;;;;5129814;27;20221;-73
2021/10/29 06:59:11;;;;;;;38.13;34.17;;;6.70;94.80;;;;;;5135492;27;20652;-71
2021/10/29 07:00:56;;;;;;;676.92;98.60;;;7.00;95.10;;;;;;5130856;27;20205;-72
2021/10/29 07:03:45;;;;;;;947.30;128.18;;;7.20;94.30;;;;;;5127473;27;20213;-72
2021/10/29 07:41:52;;;;;;;35.08;32.38;;;9.00;88.10;;;;;;5126453;27;20273;-68
2021/10/29 07:44:26;;;;;;;34.33;31.48;;;9.20;87.30;;;;;;5118319;27;20236;-69
2021/10/29 07:46:53;;;;;;;35.45;32.65;;;9.30;86.60;;;;;;5125977;27;20238;-68
2021/10/29 07:49:26;;;;;;;38.55;35.75;;;9.40;86.30;;;;;;5131243;27;20186;-72
2021/10/29 07:51:53;;;;;;;36.37;33.47;;;9.30;86.50;;;;;;5128697;27;20220;-71
2021/10/29 07:54:22;;;;;;;36.90;34.20;;;9.50;86.70;;;;;;5132191;27;20451;-71
2021/10/29 07:56:49;;;;;;;35.20;32.50;;;9.70;86.20;;;;;;5128118;27;20459;-71
2021/10/29 07:59:16;;;;;;;36.00;32.80;;;9.90;85.50;;;;;;5116193;27;20941;-71
2021/10/29 08:01:43;;;;;;;36.97;33.90;;;10.00;85.40;;;;;;5119671;27;20471;-71
2021/10/29 08:04:11;;;;;;;33.90;31.60;;;10.10;85.10;;;;;;5127038;27;20762;-71
2021/10/29 08:06:38;;;;;;;36.07;33.37;;;10.10;85.10;;;;;;5115160;27;20460;-72
2021/10/29 08:09:05;;;;;;;36.90;33.60;;;10.30;84.70;;;;;;5110669;27;20451;-72
2021/10/29 08:11:33;;;;;;;36.47;33.93;;;10.40;84.50;;;;;;5112450;27;20463;-71
2021/10/29 08:14:00;;;;;;;36.10;33.60;;;10.60;83.90;;;;;;5130283;27;20459;-72
2021/10/29 08:16:27;;;;;;;36.87;34.27;;;10.80;82.60;;;;;;5126511;27;20543;-75
2021/10/29 08:18:54;;;;;;;36.37;33.67;;;10.90;82.40;;;;;;5118659;27;20458;-72
2021/10/29 08:21:21;;;;;;;36.17;33.67;;;11.10;82.10;;;;;;5113171;27;21140;-71
2021/10/29 08:23:48;;;;;;;37.13;34.53;;;11.20;81.60;;;;;;5118956;27;21048;-71
2021/10/29 08:26:15;;;;;;;37.43;34.67;;;11.20;81.10;;;;;;5113578;27;20466;-74
2021/10/29 08:28:44;;;;;;;36.37;33.50;;;11.20;81.50;;;;;;5111547;27;20910;-71
2021/10/29 08:31:12;;;;;;;36.33;33.60;;;11.30;81.30;;;;;;5109929;27;21103;-73
2021/10/29 08:33:39;;;;;;;35.20;32.70;;;11.40;81.00;;;;;;5113094;27;20459;-74
2021/10/29 08:36:06;;;;;;;36.53;33.83;;;11.50;80.80;;;;;;5111387;27;20819;-71
2021/10/29 08:38:34;;;;;;;35.57;33.03;;;11.60;80.40;;;;;;5110143;27;20458;-71
2021/10/29 08:41:01;;;;;;;35.80;32.80;;;11.70;80.40;;;;;;5112262;27;20451;-73
2021/10/29 08:43:28;;;;;;;37.87;35.17;;;11.80;80.00;;;;;;5112474;27;20482;-75
2021/10/29 08:45:56;;;;;;;36.73;34.03;;;11.90;79.80;;;;;;5109473;27;20463;-74
2021/10/29 08:48:26;;;;;;;36.77;33.53;;;11.90;78.70;;;;;;5113311;27;20460;-72
2021/10/29 08:50:53;;;;;;;36.87;34.17;;;11.90;78.40;;;;;;5120781;27;20498;-71
2021/10/29 08:53:20;;;;;;;36.13;33.33;;;11.80;78.00;;;;;;5119709;27;20473;-72
2021/10/29 08:55:48;;;;;;;37.37;34.50;;;11.80;78.20;;;;;;5111635;27;20789;-73
2021/10/29 08:58:15;;;;;;;36.53;33.83;;;11.80;77.90;;;;;;5111487;27;20478;-76
2021/10/29 09:00:44;;;;;;;36.60;34.00;;;11.90;77.90;;;;;;5108286;27;20489;-72
2021/10/29 09:03:26;;;;;;;37.07;34.47;;;12.00;77.70;;;;;;5109365;27;20506;-71
2021/10/29 09:06:04;;;;;;;39.27;36.17;;;12.10;77.20;;;;;;5110741;27;20472;-75
2021/10/29 09:08:53;;;;;;;36.73;34.13;;;12.10;76.90;;;;;;5114028;27;20491;-71
2021/10/29 09:17:25;;;;;;;36.90;34.20;;;12.20;76.60;;;;;;5105186;27;20540;-71
2021/10/29 09:31:29;;;;;;;38.83;36.00;;;12.20;76.50;;;;;;5117091;27;20495;-69
2021/10/29 09:34:00;;;;;;;39.00;36.00;;;12.20;76.80;;;;;;5129242;27;20450;-69
2021/10/29 09:36:30;;;;;;;37.00;34.30;;;12.10;76.70;;;;;;5118328;27;20543;-69
2021/10/29 09:39:05;;;;;;;37.80;34.80;;;12.20;76.90;;;;;;5117117;27;20458;-69
2021/10/29 09:41:32;;;;;;;36.20;33.20;;;12.40;76.50;;;;;;5128331;27;20554;-68
2021/10/29 09:44:02;;;;;;;38.37;35.43;;;12.60;75.60;;;;;;5120041;27;20479;-68
2021/10/29 09:46:31;;;;;;;37.73;34.63;;;12.60;75.50;;;;;;5119125;27;20457;-69
2021/10/29 09:49:11;;;;;;;37.10;34.07;;;12.60;75.70;;;;;;5119338;27;20491;-69
2021/10/29 09:51:51;;;;;;;38.57;35.67;;;12.70;75.70;;;;;;5124086;27;20875;-69
2021/10/29 09:54:20;;;;;;;38.40;35.60;;;12.80;75.30;;;;;;5121174;27;20920;-69
2021/10/29 09:56:53;;;;;;;38.20;35.30;;;13.00;75.20;;;;;;5125296;27;20451;-70
2021/10/29 09:59:20;;;;;;;36.73;33.87;;;13.10;75.10;;;;;;5126488;27;20443;-69
2021/10/29 10:01:47;;;;;;;38.10;35.20;;;13.30;75.20;;;;;;5140849;27;20471;-69
2021/10/29 10:04:17;;;;;;;36.87;34.17;;;13.40;75.10;;;;;;5127332;27;20839;-69
2021/10/29 10:06:47;;;;;;;37.27;34.70;;;13.50;74.70;;;;;;5127496;27;20914;-69
2021/10/29 10:09:14;;;;;;;39.97;37.20;;;13.50;74.60;;;;;;5125683;27;20494;-69
2021/10/29 10:11:45;;;;;;;37.10;34.30;;;13.70;74.80;;;;;;5126215;27;20468;-69
2021/10/29 10:14:14;;;;;;;40.67;37.57;;;13.80;74.30;;;;;;5123573;27;20484;-69
2021/10/29 10:16:43;;;;;;;36.53;33.93;;;13.90;73.50;;;;;;5124556;27;20459;-69
2021/10/29 10:19:11;;;;;;;38.83;35.90;;;13.70;73.60;;;;;;5128465;27;20546;-70
2021/10/29 10:21:41;;;;;;;38.77;35.53;;;13.70;74.10;;;;;;5130601;27;20810;-69
2021/10/29 10:24:14;;;;;;;37.03;34.30;;;13.80;74.30;;;;;;5118964;27;20630;-69
2021/10/29 10:27:14;;;;;;;36.83;34.27;;;13.90;74.20;;;;;;5127811;28;20533;-69
2021/10/29 10:29:53;;;;;;;37.20;34.30;;;14.00;74.20;;;;;;5124253;27;20469;-70
2021/10/29 10:46:18;;;;;;;39.23;36.07;;;14.60;72.20;;;;;;5126303;27;20451;-68
2021/10/29 10:48:50;;;;;;;39.77;36.43;;;14.60;72.40;;;;;;5137004;27;20490;-69
2021/10/29 10:51:41;;;;;;;38.87;36.07;;;14.70;72.80;;;;;;5128500;27;20455;-69
2021/10/29 10:54:14;;;;;;;36.73;34.10;;;14.80;72.60;;;;;;5130794;27;20871;-69
2021/10/29 11:00:01;;;;;;;35.43;32.83;;;14.90;71.70;;;;;;5130034;27;20840;-70
2021/10/29 11:11:18;;;;;;;38.57;35.37;;;15.30;71.10;;;;;;5130318;27;20438;-70
2021/10/29 11:13:57;;;;;;;36.40;33.63;;;15.40;71.10;;;;;;5125877;27;20463;-70
2021/10/29 11:16:36;;;;;;;36.07;33.60;;;15.50;70.30;;;;;;5127471;27;20519;-70
2021/10/29 11:19:07;;;;;;;36.27;33.77;;;15.60;70.40;;;;;;5122213;27;20451;-72
2021/10/29 11:21:36;;;;;;;33.57;31.27;;;15.80;69.90;;;;;;5137472;27;20557;-72
2021/10/29 11:24:06;;;;;;;35.30;32.90;;;15.80;69.20;;;;;;5128221;27;20980;-72
2021/10/29 11:26:39;;;;;;;30.73;28.63;;;15.90;69.00;;;;;;5128228;27;20463;-73
2021/10/29 11:29:09;;;;;;;31.33;29.40;;;16.00;68.70;;;;;;5129692;27;20960;-72
2021/10/29 11:31:39;;;;;;;32.90;30.70;;;16.10;68.00;;;;;;5136860;27;20484;-72
2021/10/29 11:34:08;;;;;;;33.27;31.07;;;16.20;67.70;;;;;;5129914;27;20475;-71
2021/10/29 11:36:36;;;;;;;30.83;28.83;;;16.30;67.50;;;;;;5128248;27;20455;-71
2021/10/29 11:39:06;;;;;;;32.80;30.70;;;16.50;66.80;;;;;;5129344;27;20504;-71
2021/10/29 11:41:36;;;;;;;34.47;32.07;;;16.60;65.80;;;;;;5133853;27;20992;-69
2021/10/29 11:44:05;;;;;;;33.83;31.40;;;16.70;65.40;;;;;;5123112;27;20927;-70
2021/10/29 11:46:34;;;;;;;36.00;33.60;;;16.70;65.50;;;;;;5124908;27;20546;-70
2021/10/29 11:49:05;;;;;;;38.50;35.90;;;16.90;65.10;;;;;;5133696;27;20456;-69
2021/10/29 11:51:34;;;;;;;38.57;35.57;;;16.90;65.30;;;;;;5125283;27;20474;-69
2021/10/29 11:54:10;;;;;;;36.83;34.10;;;16.80;66.00;;;;;;5129042;27;20452;-69
2021/10/29 11:56:41;;;;;;;37.57;34.90;;;16.70;65.90;;;;;;5125633;27;20545;-69
2021/10/29 11:59:21;;;;;;;35.97;33.43;;;16.70;66.50;;;;;;5128610;27;20463;-69
2021/10/29 12:05:46;;;;;;;35.97;33.50;;;16.70;66.20;;;;;;5121899;27;20536;-69
2021/10/29 12:07:35;;;;;;;35.10;32.70;;;16.80;66.40;;;;;;5121926;27;20442;-69
2021/10/29 12:10:05;;;;;;;34.37;32.00;;;16.90;65.00;;;;;;5119931;27;20512;-69
2021/10/29 12:12:35;;;;;;;34.40;32.10;;;16.90;65.30;;;;;;5124287;27;20554;-69
2021/10/29 12:15:08;;;;;;;35.07;32.73;;;17.00;65.40;;;;;;5128813;27;20455;-69
2021/10/29 12:17:46;;;;;;;38.30;35.90;;;17.10;65.20;;;;;;5126251;27;20452;-69
2021/10/29 12:20:18;;;;;;;33.83;31.63;;;17.10;65.00;;;;;;5124284;27;20475;-69
2021/10/29 12:22:47;;;;;;;31.13;28.93;;;17.10;64.90;;;;;;5126384;27;20563;-69
2021/10/29 12:25:22;;;;;;;34.97;32.77;;;17.20;64.20;;;;;;5126491;27;20472;-71
2021/10/29 12:27:54;;;;;;;34.03;31.70;;;17.30;63.90;;;;;;5120443;27;20451;-72
2021/10/29 12:30:34;;;;;;;32.73;30.53;;;17.40;64.40;;;;;;5126730;27;20463;-71
2021/10/29 13:01:27;;;;;;;30.10;28.30;;;18.10;58.40;;;;;;5126815;27;20964;-73
2021/10/29 13:03:57;;;;;;;31.53;29.40;;;18.10;58.50;;;;;;5127568;27;20926;-71
2021/10/29 13:06:32;;;;;;;30.90;28.90;;;18.20;58.10;;;;;;5129042;27;20455;-72
2021/10/29 13:09:00;;;;;;;28.37;26.57;;;18.30;57.80;;;;;;5128660;27;20470;-71
2021/10/29 13:11:28;;;;;;;28.67;26.60;;;18.20;57.40;;;;;;5126924;27;20872;-72
2021/10/29 13:13:57;;;;;;;27.87;26.27;;;18.20;57.20;;;;;;5133717;27;20458;-69
2021/10/29 13:16:27;;;;;;;29.40;27.50;;;18.20;57.00;;;;;;5127713;27;20530;-69
2021/10/29 13:19:08;;;;;;;30.10;28.30;;;18.30;57.20;;;;;;5128295;27;20451;-68
2021/10/29 13:35:29;;;;;;;31.33;29.30;;;18.20;58.60;;;;;;5126271;27;20442;-68
2021/10/29 13:55:13;;;;;;;30.07;28.07;;;18.10;59.40;;;;;;5087026;27;21119;-69
2021/10/29 13:57:57;;;;;;;29.63;27.83;;;18.10;59.40;;;;;;5129798;27;20477;-69
2021/10/29 14:03:28;;;;;;;30.67;28.57;;;18.00;60.00;;;;;;5091376;27;20845;-69
2021/10/29 14:28:24;;;;;;;31.60;29.40;;;17.60;61.80;;;;;;5134845;27;20509;-68
2021/10/29 14:31:04;;;;;;;32.60;30.37;;;17.60;61.70;;;;;;5127518;27;21119;-69
2021/10/29 14:33:34;;;;;;;32.13;30.13;;;17.50;62.20;;;;;;5125410;27;20971;-69
2021/10/29 14:36:02;;;;;;;32.40;30.40;;;17.40;62.60;;;;;;5125741;27;20472;-68
2021/10/29 14:38:40;;;;;;;31.90;29.90;;;17.30;63.00;;;;;;5123622;27;20460;-68
2021/10/29 14:41:12;;;;;;;32.90;30.80;;;17.20;63.40;;;;;;5128145;27;20450;-71
2021/10/29 14:43:46;;;;;;;33.90;31.90;;;17.10;63.80;;;;;;5127520;27;20460;-69
2021/10/29 14:46:26;;;;;;;32.73;30.57;;;17.00;64.20;;;;;;5123297;27;21007;-68
2021/10/29 14:48:59;;;;;;;33.67;31.27;;;17.00;64.60;;;;;;5124033;27;20448;-68
2021/10/29 14:51:49;;;;;;;32.70;30.60;;;17.00;64.60;;;;;;5123611;27;20472;-69
2021/10/29 15:03:09;;;;;;;31.60;29.50;;;16.80;65.60;;;;;;5095872;27;20483;-69
2021/10/29 15:05:48;;;;;;;31.40;29.30;;;16.70;65.90;;;;;;5129445;27;20531;-70
2021/10/29 15:30:37;;;;;;;31.07;29.00;;;16.10;69.50;;;;;;5135465;27;20442;-71
2021/10/29 15:41:38;;;;;;;29.60;27.53;;;15.70;71.30;;;;;;5098108;27;20553;-71
2021/10/29 15:44:11;;;;;;;31.47;29.37;;;15.60;71.40;;;;;;5125771;27;20876;-71
2021/10/29 15:46:43;;;;;;;31.07;29.10;;;15.50;72.10;;;;;;5126344;27;20462;-70
2021/10/29 15:49:23;;;;;;;30.83;28.63;;;15.30;72.70;;;;;;5123507;27;20486;-71
2021/10/29 15:51:54;;;;;;;31.50;29.23;;;15.20;73.10;;;;;;5135539;27;20901;-71
2021/10/29 15:54:21;;;;;;;30.40;28.40;;;15.10;73.40;;;;;;5136128;27;20466;-72
2021/10/29 15:56:53;;;;;;;31.43;28.83;;;15.00;73.90;;;;;;5135937;27;20452;-71
2021/10/29 15:59:28;;;;;;;31.87;29.00;;;14.90;74.10;;;;;;5129871;27;20455;-71
2021/10/29 16:02:01;;;;;;;29.90;27.90;;;14.80;74.50;;;;;;5133164;27;20892;-71
2021/10/29 16:18:12;;;;;;;28.00;26.10;;;14.20;77.40;;;;;;5127224;27;21015;-72
2021/10/29 16:20:40;;;;;;;29.47;27.33;;;14.00;78.20;;;;;;5127377;27;20451;-74
2021/10/29 16:23:07;;;;;;;28.70;26.60;;;13.80;78.70;;;;;;5139302;27;20475;-72
2021/10/29 16:25:35;;;;;;;29.83;27.83;;;13.70;79.00;;;;;;5125266;27;20494;-75
2021/10/29 16:28:04;;;;;;;29.37;27.43;;;13.60;79.50;;;;;;5134706;27;20830;-70
2021/10/29 16:30:33;;;;;;;30.33;28.40;;;13.40;80.20;;;;;;5128170;27;20589;-70
2021/10/29 16:33:23;;;;;;;31.30;29.10;;;13.30;80.70;;;;;;5127174;27;20475;-71
2021/10/29 16:35:51;;;;;;;30.40;28.30;;;13.20;81.00;;;;;;5127008;27;20915;-70
2021/10/29 16:38:18;;;;;;;30.93;28.73;;;13.10;80.60;;;;;;5132423;27;20486;-71
2021/10/29 16:40:47;;;;;;;30.80;28.50;;;13.20;80.40;;;;;;5125056;27;20466;-69